sensor_id;sensor_type;location;lat;lon;timestamp;pressure;altitude;pressure_sealevel;temperature
15709;BMP180;7954;51.914;8.420;2022-12-08T00:01:42;99713.88;;;10.47
15709;BMP180;7954;51.914;8.420;2022-12-08T00:04:10;99707.66;;;10.45
15709;BMP180;7954;51.914;8.420;2022-12-08T00:06:41;99707.88;;;10.47
15709;BMP180;7954;51.914;8.420;2022-12-08T00:09:31;99706.31;;;10.53
15709;BMP180;7954;51.914;8.420;2022-12-08T00:12:07;99703.06;;;10.43
15709;BMP180;7954;51.914;8.420;2022-12-08T00:14:38;99704.41;;;10.35
15709;BMP180;7954;51.914;8.420;2022-12-08T00:17:07;99700.72;;;10.28
15709;BMP180;7954;51.914;8.420;2022-12-08T00:19:37;99688.09;;;10.28
15709;BMP180;7954;51.914;8.420;2022-12-08T00:22:07;99693.81;;;10.22
15709;BMP180;7954;51.914;8.420;2022-12-08T00:24:38;99695.66;;;10.28
15709;BMP180;7954;51.914;8.420;2022-12-08T00:27:07;99694.66;;;10.11
15709;BMP180;7954;51.914;8.420;2022-12-08T00:29:35;99689.22;;;10.19
15709;BMP180;7954;51.914;8.420;2022-12-08T00:32:04;99681.44;;;10.18
15709;BMP180;7954;51.914;8.420;2022-12-08T00:34:33;99678.91;;;10.18
15709;BMP180;7954;51.914;8.420;2022-12-08T00:37:01;99686.47;;;10.23
15709;BMP180;7954;51.914;8.420;2022-12-08T00:39:30;99681.59;;;10.08
15709;BMP180;7954;51.914;8.420;2022-12-08T00:41:58;99675.69;;;10.19
15709;BMP180;7954;51.914;8.420;2022-12-08T00:44:39;99684.91;;;10.24
15709;BMP180;7954;51.914;8.420;2022-12-08T00:47:07;99674.53;;;10.17
15709;BMP180;7954;51.914;8.420;2022-12-08T00:49:35;99677.06;;;10.17
15709;BMP180;7954;51.914;8.420;2022-12-08T00:52:03;99678.69;;;10.22
15709;BMP180;7954;51.914;8.420;2022-12-08T00:54:33;99676.88;;;10.26
15709;BMP180;7954;51.914;8.420;2022-12-08T00:57:01;99674.81;;;10.29
15709;BMP180;7954;51.914;8.420;2022-12-08T00:59:29;99676.63;;;10.24
15709;BMP180;7954;51.914;8.420;2022-12-08T01:01:57;99669.06;;;10.24
15709;BMP180;7954;51.914;8.420;2022-12-08T01:04:25;99667.28;;;10.40
15709;BMP180;7954;51.914;8.420;2022-12-08T01:06:53;99663.84;;;10.45
15709;BMP180;7954;51.914;8.420;2022-12-08T01:09:21;99660.84;;;10.31
15709;BMP180;7954;51.914;8.420;2022-12-08T01:11:51;99662.19;;;10.34
15709;BMP180;7954;51.914;8.420;2022-12-08T01:14:19;99664.97;;;10.47
15709;BMP180;7954;51.914;8.420;2022-12-08T01:16:47;99662.28;;;10.51
15709;BMP180;7954;51.914;8.420;2022-12-08T01:19:15;99663.63;;;10.49
15709;BMP180;7954;51.914;8.420;2022-12-08T01:21:44;99663.88;;;10.56
15709;BMP180;7954;51.914;8.420;2022-12-08T01:24:14;99659.78;;;10.67
15709;BMP180;7954;51.914;8.420;2022-12-08T01:26:43;99668.25;;;10.68
15709;BMP180;7954;51.914;8.420;2022-12-08T01:29:13;99671.91;;;10.64
15709;BMP180;7954;51.914;8.420;2022-12-08T01:31:40;99663.41;;;10.69
15709;BMP180;7954;51.914;8.420;2022-12-08T01:34:11;99665.03;;;10.69
15709;BMP180;7954;51.914;8.420;2022-12-08T01:36:39;99672.38;;;10.56
15709;BMP180;7954;51.914;8.420;2022-12-08T01:39:12;99654.47;;;10.55
15709;BMP180;7954;51.914;8.420;2022-12-08T01:41:42;99667.09;;;10.55
15709;BMP180;7954;51.914;8.420;2022-12-08T01:47:35;99659.50;;;10.49
15709;BMP180;7954;51.914;8.420;2022-12-08T01:50:07;99668.22;;;10.46
15709;BMP180;7954;51.914;8.420;2022-12-08T01:52:38;99657.66;;;10.59
15709;BMP180;7954;51.914;8.420;2022-12-08T01:55:10;99660.88;;;10.47
15709;BMP180;7954;51.914;8.420;2022-12-08T01:57:42;99654.91;;;10.58
15709;BMP180;7954;51.914;8.420;2022-12-08T02:00:13;99656.31;;;10.56
15709;BMP180;7954;51.914;8.420;2022-12-08T02:02:52;99652.44;;;10.69
15709;BMP180;7954;51.914;8.420;2022-12-08T02:05:23;99644.63;;;10.67
15709;BMP180;7954;51.914;8.420;2022-12-08T02:07:53;99638.84;;;10.52
15709;BMP180;7954;51.914;8.420;2022-12-08T02:10:22;99637.94;;;10.57
15709;BMP180;7954;51.914;8.420;2022-12-08T02:12:51;99634.03;;;10.48
15709;BMP180;7954;51.914;8.420;2022-12-08T02:15:27;99636.13;;;10.56
15709;BMP180;7954;51.914;8.420;2022-12-08T02:18:11;99629.91;;;10.54
15709;BMP180;7954;51.914;8.420;2022-12-08T02:20:53;99626.50;;;10.53
15709;BMP180;7954;51.914;8.420;2022-12-08T02:23:29;99631.53;;;10.53
15709;BMP180;7954;51.914;8.420;2022-12-08T02:32:21;99616.59;;;10.44
15709;BMP180;7954;51.914;8.420;2022-12-08T02:34:56;99622.09;;;10.41
15709;BMP180;7954;51.914;8.420;2022-12-08T02:37:29;99612.22;;;10.43
15709;BMP180;7954;51.914;8.420;2022-12-08T02:40:02;99618.19;;;10.38
15709;BMP180;7954;51.914;8.420;2022-12-08T02:42:36;99620.25;;;10.35
15709;BMP180;7954;51.914;8.420;2022-12-08T02:45:10;99612.72;;;10.46
15709;BMP180;7954;51.914;8.420;2022-12-08T02:47:42;99612.69;;;10.35
15709;BMP180;7954;51.914;8.420;2022-12-08T02:50:13;99617.28;;;10.43
15709;BMP180;7954;51.914;8.420;2022-12-08T02:52:43;99607.66;;;10.46
15709;BMP180;7954;51.914;8.420;2022-12-08T02:55:18;99614.31;;;10.40
15709;BMP180;7954;51.914;8.420;2022-12-08T02:57:58;99608.34;;;10.45
15709;BMP180;7954;51.914;8.420;2022-12-08T03:00:35;99608.78;;;10.48
15709;BMP180;7954;51.914;8.420;2022-12-08T03:03:09;99601.25;;;10.59
15709;BMP180;7954;51.914;8.420;2022-12-08T03:05:54;99598.03;;;10.49
15709;BMP180;7954;51.914;8.420;2022-12-08T03:08:29;99600.53;;;10.38
15709;BMP180;7954;51.914;8.420;2022-12-08T03:11:02;99585.16;;;10.42
15709;BMP180;7954;51.914;8.420;2022-12-08T03:13:35;99574.84;;;10.51
15709;BMP180;7954;51.914;8.420;2022-12-08T03:16:08;99576.00;;;10.59
15709;BMP180;7954;51.914;8.420;2022-12-08T03:18:41;99574.63;;;10.66
15709;BMP180;7954;51.914;8.420;2022-12-08T03:21:14;99570.94;;;10.48
15709;BMP180;7954;51.914;8.420;2022-12-08T03:23:43;99570.03;;;10.53
15709;BMP180;7954;51.914;8.420;2022-12-08T03:26:16;99566.59;;;10.41
15709;BMP180;7954;51.914;8.420;2022-12-08T03:28:45;99567.28;;;10.40
15709;BMP180;7954;51.914;8.420;2022-12-08T03:31:14;99564.50;;;10.44
15709;BMP180;7954;51.914;8.420;2022-12-08T03:33:48;99557.19;;;10.51
15709;BMP180;7954;51.914;8.420;2022-12-08T03:36:19;99549.16;;;10.54
15709;BMP180;7954;51.914;8.420;2022-12-08T03:38:50;99549.38;;;10.39
15709;BMP180;7954;51.914;8.420;2022-12-08T03:41:20;99552.81;;;10.23
15709;BMP180;7954;51.914;8.420;2022-12-08T03:43:50;99560.59;;;10.19
15709;BMP180;7954;51.914;8.420;2022-12-08T03:46:19;99542.03;;;10.24
15709;BMP180;7954;51.914;8.420;2022-12-08T03:48:47;99531.00;;;10.18
15709;BMP180;7954;51.914;8.420;2022-12-08T03:51:15;99537.69;;;10.18
15709;BMP180;7954;51.914;8.420;2022-12-08T03:53:45;99531.72;;;10.28
15709;BMP180;7954;51.914;8.420;2022-12-08T03:56:15;99520.72;;;10.49
15709;BMP180;7954;51.914;8.420;2022-12-08T03:58:46;99524.16;;;10.50
15709;BMP180;7954;51.914;8.420;2022-12-08T04:01:15;99514.06;;;10.50
15709;BMP180;7954;51.914;8.420;2022-12-08T04:03:43;99505.38;;;10.53
15709;BMP180;7954;51.914;8.420;2022-12-08T04:06:12;99507.19;;;10.60
15709;BMP180;7954;51.914;8.420;2022-12-08T04:08:41;99498.47;;;10.58
15709;BMP180;7954;51.914;8.420;2022-12-08T04:11:10;99509.94;;;10.34
15709;BMP180;7954;51.914;8.420;2022-12-08T04:13:40;99501.91;;;10.53
15709;BMP180;7954;51.914;8.420;2022-12-08T04:16:14;99500.28;;;10.75
15709;BMP180;7954;51.914;8.420;2022-12-08T04:18:42;99500.03;;;10.79
15709;BMP180;7954;51.914;8.420;2022-12-08T04:21:10;99499.09;;;10.84
15709;BMP180;7954;51.914;8.420;2022-12-08T04:23:39;99496.59;;;10.79
15709;BMP180;7954;51.914;8.420;2022-12-08T04:26:09;99485.38;;;10.71
15709;BMP180;7954;51.914;8.420;2022-12-08T04:28:38;99498.00;;;10.66
15709;BMP180;7954;51.914;8.420;2022-12-08T04:31:06;99487.44;;;10.52
15709;BMP180;7954;51.914;8.420;2022-12-08T04:33:34;99476.44;;;10.57
15709;BMP180;7954;51.914;8.420;2022-12-08T04:36:03;99476.91;;;10.60
15709;BMP180;7954;51.914;8.420;2022-12-08T04:38:33;99475.06;;;10.59
15709;BMP180;7954;51.914;8.420;2022-12-08T04:41:01;99476.91;;;10.60
15709;BMP180;7954;51.914;8.420;2022-12-08T04:43:30;99478.25;;;10.74
15709;BMP180;7954;51.914;8.420;2022-12-08T04:45:58;99472.28;;;10.63
15709;BMP180;7954;51.914;8.420;2022-12-08T04:48:26;99471.38;;;10.57
15709;BMP180;7954;51.914;8.420;2022-12-08T04:50:53;99472.09;;;10.56
15709;BMP180;7954;51.914;8.420;2022-12-08T04:53:21;99476.66;;;10.64
15709;BMP180;7954;51.914;8.420;2022-12-08T04:55:52;99475.75;;;10.69
15709;BMP180;7954;51.914;8.420;2022-12-08T04:58:20;99480.59;;;10.51
15709;BMP180;7954;51.914;8.420;2022-12-08T05:00:50;99470.00;;;10.59
15709;BMP180;7954;51.914;8.420;2022-12-08T05:03:19;99472.78;;;10.55
15709;BMP180;7954;51.914;8.420;2022-12-08T05:05:54;99467.72;;;10.49
15709;BMP180;7954;51.914;8.420;2022-12-08T05:08:21;99462.25;;;10.41
15709;BMP180;7954;51.914;8.420;2022-12-08T05:10:50;99464.97;;;10.37
15709;BMP180;7954;51.914;8.420;2022-12-08T05:13:18;99471.19;;;10.28
15709;BMP180;7954;51.914;8.420;2022-12-08T05:15:47;99475.53;;;10.29
15709;BMP180;7954;51.914;8.420;2022-12-08T05:18:17;99482.41;;;10.03
15709;BMP180;7954;51.914;8.420;2022-12-08T05:20:45;99491.06;;;9.83
15709;BMP180;7954;51.914;8.420;2022-12-08T05:23:13;99494.22;;;9.76
15709;BMP180;7954;51.914;8.420;2022-12-08T05:25:43;99492.41;;;9.75
15709;BMP180;7954;51.914;8.420;2022-12-08T05:28:11;99481.41;;;9.80
15709;BMP180;7954;51.914;8.420;2022-12-08T05:30:59;99482.56;;;9.77
15709;BMP180;7954;51.914;8.420;2022-12-08T05:33:28;99483.88;;;9.58
15709;BMP180;7954;51.914;8.420;2022-12-08T05:35:56;99480.69;;;9.59
15709;BMP180;7954;51.914;8.420;2022-12-08T05:38:24;99473.16;;;9.76
15709;BMP180;7954;51.914;8.420;2022-12-08T05:40:53;99472.94;;;9.74
15709;BMP180;7954;51.914;8.420;2022-12-08T05:43:21;99464.22;;;9.89
15709;BMP180;7954;51.914;8.420;2022-12-08T05:45:49;99466.97;;;9.79
15709;BMP180;7954;51.914;8.420;2022-12-08T05:48:17;99451.19;;;9.80
15709;BMP180;7954;51.914;8.420;2022-12-08T05:50:47;99458.00;;;9.65
15709;BMP180;7954;51.914;8.420;2022-12-08T05:53:16;99452.09;;;9.75
15709;BMP180;7954;51.914;8.420;2022-12-08T05:55:45;99449.78;;;9.82
15709;BMP180;7954;51.914;8.420;2022-12-08T05:58:15;99447.50;;;9.84
15709;BMP180;7954;51.914;8.420;2022-12-08T06:00:43;99447.78;;;9.96
15709;BMP180;7954;51.914;8.420;2022-12-08T06:03:14;99447.78;;;10.07
15709;BMP180;7954;51.914;8.420;2022-12-08T06:05:43;99449.41;;;10.18
15709;BMP180;7954;51.914;8.420;2022-12-08T06:08:13;99447.56;;;10.11
15709;BMP180;7954;51.914;8.420;2022-12-08T06:10:43;99434.94;;;10.06
15709;BMP180;7954;51.914;8.420;2022-12-08T06:13:11;99433.34;;;10.17
15709;BMP180;7954;51.914;8.420;2022-12-08T06:15:40;99435.63;;;10.05
15709;BMP180;7954;51.914;8.420;2022-12-08T06:18:09;99447.34;;;10.04
15709;BMP180;7954;51.914;8.420;2022-12-08T06:20:37;99437.47;;;10.11
15709;BMP180;7954;51.914;8.420;2022-12-08T06:23:05;99429.88;;;9.95
15709;BMP180;7954;51.914;8.420;2022-12-08T06:25:35;99435.13;;;9.91
15709;BMP180;7954;51.914;8.420;2022-12-08T06:28:04;99444.81;;;10.04
15709;BMP180;7954;51.914;8.420;2022-12-08T06:30:32;99434.97;;;10.00
15709;BMP180;7954;51.914;8.420;2022-12-08T06:33:00;99439.50;;;9.75
15709;BMP180;7954;51.914;8.420;2022-12-08T06:35:29;99435.13;;;9.91
15709;BMP180;7954;51.914;8.420;2022-12-08T06:37:57;99437.88;;;9.92
15709;BMP180;7954;51.914;8.420;2022-12-08T06:40:25;99442.53;;;10.00
15709;BMP180;7954;51.914;8.420;2022-12-08T06:42:56;99427.41;;;10.00
15709;BMP180;7954;51.914;8.420;2022-12-08T06:45:24;99440.69;;;10.10
15709;BMP180;7954;51.914;8.420;2022-12-08T06:47:52;99437.69;;;10.07
15709;BMP180;7954;51.914;8.420;2022-12-08T06:50:21;99438.63;;;10.02
15709;BMP180;7954;51.914;8.420;2022-12-08T06:52:48;99426.94;;;10.19
15709;BMP180;7954;51.914;8.420;2022-12-08T06:55:30;99426.25;;;10.25
15709;BMP180;7954;51.914;8.420;2022-12-08T06:58:19;99430.63;;;10.21
15709;BMP180;7954;51.914;8.420;2022-12-08T07:00:47;99435.63;;;10.16
15709;BMP180;7954;51.914;8.420;2022-12-08T07:03:15;99435.88;;;10.17
15709;BMP180;7954;51.914;8.420;2022-12-08T07:05:43;99432.44;;;10.22
15709;BMP180;7954;51.914;8.420;2022-12-08T07:08:12;99441.13;;;10.02
15709;BMP180;7954;51.914;8.420;2022-12-08T07:10:40;99442.97;;;10.20
15709;BMP180;7954;51.914;8.420;2022-12-08T07:13:09;99435.66;;;10.10
15709;BMP180;7954;51.914;8.420;2022-12-08T07:15:38;99442.28;;;10.04
15709;BMP180;7954;51.914;8.420;2022-12-08T07:18:07;99443.41;;;9.95
15709;BMP180;7954;51.914;8.420;2022-12-08T07:20:37;99442.00;;;9.75
15709;BMP180;7954;51.914;8.420;2022-12-08T07:23:05;99443.81;;;9.76
15709;BMP180;7954;51.914;8.420;2022-12-08T07:25:33;99444.31;;;9.90
15709;BMP180;7954;51.914;8.420;2022-12-08T07:28:06;99442.06;;;10.08
15709;BMP180;7954;51.914;8.420;2022-12-08T07:30:34;99443.84;;;9.87
15709;BMP180;7954;51.914;8.420;2022-12-08T07:33:04;99443.38;;;9.90
15709;BMP180;7954;51.914;8.420;2022-12-08T07:35:33;99445.94;;;10.06
15709;BMP180;7954;51.914;8.420;2022-12-08T07:38:02;99451.66;;;9.94
15709;BMP180;7954;51.914;8.420;2022-12-08T07:40:30;99454.38;;;9.96
15709;BMP180;7954;51.914;8.420;2022-12-08T07:42:57;99442.97;;;10.03
15709;BMP180;7954;51.914;8.420;2022-12-08T07:45:26;99441.16;;;10.19
15709;BMP180;7954;51.914;8.420;2022-12-08T07:47:57;99438.38;;;10.28
15709;BMP180;7954;51.914;8.420;2022-12-08T07:50:26;99440.00;;;10.22
15709;BMP180;7954;51.914;8.420;2022-12-08T07:52:54;99448.47;;;10.06
15709;BMP180;7954;51.914;8.420;2022-12-08T07:55:22;99442.53;;;10.00
15709;BMP180;7954;51.914;8.420;2022-12-08T07:57:51;99451.44;;;10.04
15709;BMP180;7954;51.914;8.420;2022-12-08T08:00:20;99451.44;;;9.98
15709;BMP180;7954;51.914;8.420;2022-12-08T08:02:48;99461.44;;;9.76
15709;BMP180;7954;51.914;8.420;2022-12-08T08:05:16;99453.19;;;9.61
15709;BMP180;7954;51.914;8.420;2022-12-08T08:07:45;99453.88;;;9.76
15709;BMP180;7954;51.914;8.420;2022-12-08T08:10:14;99450.00;;;9.78
15709;BMP180;7954;51.914;8.420;2022-12-08T08:12:42;99449.13;;;9.78
15709;BMP180;7954;51.914;8.420;2022-12-08T08:15:12;99453.22;;;9.77
15709;BMP180;7954;51.914;8.420;2022-12-08T08:17:40;99446.13;;;9.86
15709;BMP180;7954;51.914;8.420;2022-12-08T08:20:09;99445.22;;;9.85
15709;BMP180;7954;51.914;8.420;2022-12-08T08:22:40;99442.72;;;9.96
15709;BMP180;7954;51.914;8.420;2022-12-08T08:25:10;99448.19;;;9.88
15709;BMP180;7954;51.914;8.420;2022-12-08T08:27:38;99445.72;;;9.99
15709;BMP180;7954;51.914;8.420;2022-12-08T08:30:08;99458.13;;;9.98
15709;BMP180;7954;51.914;8.420;2022-12-08T08:32:45;99459.00;;;9.98
15709;BMP180;7954;51.914;8.420;2022-12-08T08:35:13;99461.91;;;9.68
15709;BMP180;7954;51.914;8.420;2022-12-08T08:37:41;99455.28;;;9.80
15709;BMP180;7954;51.914;8.420;2022-12-08T08:40:16;99454.81;;;9.82
15709;BMP180;7954;51.914;8.420;2022-12-08T08:42:46;99458.50;;;9.90
15709;BMP180;7954;51.914;8.420;2022-12-08T08:45:14;99469.25;;;9.89
15709;BMP180;7954;51.914;8.420;2022-12-08T08:47:42;99459.44;;;9.90
15709;BMP180;7954;51.914;8.420;2022-12-08T08:50:10;99464.06;;;9.98
15709;BMP180;7954;51.914;8.420;2022-12-08T08:52:38;99464.06;;;9.98
15709;BMP180;7954;51.914;8.420;2022-12-08T08:55:06;99463.31;;;9.94
15709;BMP180;7954;51.914;8.420;2022-12-08T08:57:36;99469.81;;;10.03
15709;BMP180;7954;51.914;8.420;2022-12-08T09:00:05;99456.25;;;10.02
15709;BMP180;7954;51.914;8.420;2022-12-08T09:02:36;99466.59;;;10.09
15709;BMP180;7954;51.914;8.420;2022-12-08T09:05:05;99462.91;;;10.18
15709;BMP180;7954;51.914;8.420;2022-12-08T09:07:33;99468.44;;;10.16
15709;BMP180;7954;51.914;8.420;2022-12-08T09:10:03;99468.63;;;10.06
15709;BMP180;7954;51.914;8.420;2022-12-08T09:12:31;99473.47;;;9.99
15709;BMP180;7954;51.914;8.420;2022-12-08T09:15:01;99469.34;;;10.11
15709;BMP180;7954;51.914;8.420;2022-12-08T09:17:29;99462.03;;;10.28
15709;BMP180;7954;51.914;8.420;2022-12-08T09:19:57;99459.94;;;10.31
15709;BMP180;7954;51.914;8.420;2022-12-08T09:22:27;99464.53;;;10.34
15709;BMP180;7954;51.914;8.420;2022-12-08T09:24:54;99465.00;;;10.31
15709;BMP180;7954;51.914;8.420;2022-12-08T09:27:22;99474.59;;;10.39
15709;BMP180;7954;51.914;8.420;2022-12-08T09:29:50;99471.63;;;10.42
15709;BMP180;7954;51.914;8.420;2022-12-08T09:32:20;99465.91;;;10.37
15709;BMP180;7954;51.914;8.420;2022-12-08T09:34:48;99467.75;;;10.38
15709;BMP180;7954;51.914;8.420;2022-12-08T09:37:18;99468.66;;;10.39
15709;BMP180;7954;51.914;8.420;2022-12-08T09:39:46;99468.69;;;10.33
15709;BMP180;7954;51.914;8.420;2022-12-08T09:42:22;99467.50;;;10.37
15709;BMP180;7954;51.914;8.420;2022-12-08T09:45:02;99480.59;;;10.29
15709;BMP180;7954;51.914;8.420;2022-12-08T09:47:39;99473.91;;;10.29
15709;BMP180;7954;51.914;8.420;2022-12-08T09:50:13;99464.53;;;10.34
15709;BMP180;7954;51.914;8.420;2022-12-08T09:52:45;99476.22;;;10.17
15709;BMP180;7954;51.914;8.420;2022-12-08T09:55:22;99473.91;;;10.29
15709;BMP180;7954;51.914;8.420;2022-12-08T09:57:58;99469.81;;;10.41
15709;BMP180;7954;51.914;8.420;2022-12-08T10:00:27;99465.00;;;10.42
15709;BMP180;7954;51.914;8.420;2022-12-08T10:02:56;99480.59;;;10.29
15709;BMP180;7954;51.914;8.420;2022-12-08T10:05:26;99473.72;;;10.39
15709;BMP180;7954;51.914;8.420;2022-12-08T10:08:01;99476.22;;;10.50
15709;BMP180;7954;51.914;8.420;2022-12-08T10:10:36;99467.06;;;10.45
15709;BMP180;7954;51.914;8.420;2022-12-08T10:13:10;99466.81;;;10.38
15709;BMP180;7954;51.914;8.420;2022-12-08T10:15:43;99475.78;;;10.41
15709;BMP180;7954;51.914;8.420;2022-12-08T10:18:17;99464.28;;;10.60
15709;BMP180;7954;51.914;8.420;2022-12-08T10:20:48;99465.44;;;10.51
15709;BMP180;7954;51.914;8.420;2022-12-08T10:23:27;99459.50;;;10.45
15709;BMP180;7954;51.914;8.420;2022-12-08T10:26:00;99459.69;;;10.63
15709;BMP180;7954;51.914;8.420;2022-12-08T10:28:28;99463.13;;;10.58
15709;BMP180;7954;51.914;8.420;2022-12-08T10:30:56;99452.59;;;10.55
15709;BMP180;7954;51.914;8.420;2022-12-08T10:33:26;99464.06;;;10.47
15709;BMP180;7954;51.914;8.420;2022-12-08T10:35:56;99456.28;;;10.46
15709;BMP180;7954;51.914;8.420;2022-12-08T10:38:30;99455.78;;;10.59
15709;BMP180;7954;51.914;8.420;2022-12-08T10:41:03;99459.69;;;10.63
15709;BMP180;7954;51.914;8.420;2022-12-08T10:43:31;99460.38;;;10.67
15709;BMP180;7954;51.914;8.420;2022-12-08T10:46:08;99454.88;;;10.59
15709;BMP180;7954;51.914;8.420;2022-12-08T10:48:46;99456.03;;;10.50
15709;BMP180;7954;51.914;8.420;2022-12-08T10:51:27;99458.31;;;10.54
15709;BMP180;7954;51.914;8.420;2022-12-08T10:53:56;99448.69;;;10.51
15709;BMP180;7954;51.914;8.420;2022-12-08T10:56:26;99446.41;;;10.42
15709;BMP180;7954;51.914;8.420;2022-12-08T10:59:12;99452.63;;;10.38
15709;BMP180;7954;51.914;8.420;2022-12-08T11:01:41;99445.03;;;10.33
15709;BMP180;7954;51.914;8.420;2022-12-08T11:04:16;99448.69;;;10.29
15709;BMP180;7954;51.914;8.420;2022-12-08T11:06:48;99452.84;;;10.24
15709;BMP180;7954;51.914;8.420;2022-12-08T11:09:29;99445.03;;;10.44
15709;BMP180;7954;51.914;8.420;2022-12-08T11:11:58;99451.25;;;10.46
15709;BMP180;7954;51.914;8.420;2022-12-08T11:14:29;99448.00;;;10.52
15709;BMP180;7954;51.914;8.420;2022-12-08T11:17:02;99439.28;;;10.56
15709;BMP180;7954;51.914;8.420;2022-12-08T11:19:35;99439.75;;;10.59
15709;BMP180;7954;51.914;8.420;2022-12-08T11:22:19;99436.53;;;10.49
15709;BMP180;7954;51.914;8.420;2022-12-08T11:24:57;99445.72;;;10.54
15709;BMP180;7954;51.914;8.420;2022-12-08T11:27:25;99440.63;;;10.59
15709;BMP180;7954;51.914;8.420;2022-12-08T11:29:54;99438.31;;;10.72
15709;BMP180;7954;51.914;8.420;2022-12-08T11:32:23;99443.84;;;10.69
15709;BMP180;7954;51.914;8.420;2022-12-08T11:34:56;99442.50;;;10.66
15709;BMP180;7954;51.914;8.420;2022-12-08T11:37:32;99438.75;;;10.80
15709;BMP180;7954;51.914;8.420;2022-12-08T11:40:05;99439.50;;;10.57
15709;BMP180;7954;51.914;8.420;2022-12-08T11:42:46;99438.59;;;10.62
15709;BMP180;7954;51.914;8.420;2022-12-08T11:45:22;99439.72;;;10.70
15709;BMP180;7954;51.914;8.420;2022-12-08T11:47:57;99427.56;;;10.62
15709;BMP180;7954;51.914;8.420;2022-12-08T11:50:37;99424.56;;;10.70
15709;BMP180;7954;51.914;8.420;2022-12-08T11:53:14;99437.66;;;10.62
15709;BMP180;7954;51.914;8.420;2022-12-08T11:55:46;99434.19;;;10.67
15709;BMP180;7954;51.914;8.420;2022-12-08T11:58:19;99434.91;;;10.66
15709;BMP180;7954;51.914;8.420;2022-12-08T12:00:48;99427.09;;;10.64
15709;BMP180;7954;51.914;8.420;2022-12-08T12:03:23;99424.56;;;10.70
15709;BMP180;7954;51.914;8.420;2022-12-08T12:06:12;99431.69;;;10.67
15709;BMP180;7954;51.914;8.420;2022-12-08T12:09:10;99418.13;;;10.72
15709;BMP180;7954;51.914;8.420;2022-12-08T12:11:50;99419.50;;;10.81
15709;BMP180;7954;51.914;8.420;2022-12-08T12:14:58;99417.66;;;10.80
15709;BMP180;7954;51.914;8.420;2022-12-08T12:17:42;99420.84;;;10.89
15709;BMP180;7954;51.914;8.420;2022-12-08T12:20:15;99415.09;;;10.85
15709;BMP180;7954;51.914;8.420;2022-12-08T12:22:49;99423.19;;;10.77
15709;BMP180;7954;51.914;8.420;2022-12-08T12:25:22;99410.75;;;10.89
15709;BMP180;7954;51.914;8.420;2022-12-08T12:27:51;99412.09;;;10.98
15709;BMP180;7954;51.914;8.420;2022-12-08T12:30:24;99410.47;;;10.99
15709;BMP180;7954;51.914;8.420;2022-12-08T12:32:56;99408.66;;;10.98
15709;BMP180;7954;51.914;8.420;2022-12-08T12:35:30;99406.59;;;10.95
15709;BMP180;7954;51.914;8.420;2022-12-08T12:38:03;99414.81;;;11.05
15709;BMP180;7954;51.914;8.420;2022-12-08T12:40:57;99406.94;;;11.20
15709;BMP180;7954;51.914;8.420;2022-12-08T12:43:30;99404.91;;;11.18
15709;BMP180;7954;51.914;8.420;2022-12-08T12:46:37;99411.78;;;11.13
15709;BMP180;7954;51.914;8.420;2022-12-08T12:55:22;99423.06;;;11.15
15709;BMP180;7954;51.914;8.420;2022-12-08T12:57:52;99417.56;;;11.07
15709;BMP180;7954;51.914;8.420;2022-12-08T13:00:22;99417.09;;;11.09
15709;BMP180;7954;51.914;8.420;2022-12-08T13:02:52;99421.91;;;11.13
15709;BMP180;7954;51.914;8.420;2022-12-08T13:05:23;99419.41;;;11.08
15709;BMP180;7954;51.914;8.420;2022-12-08T13:07:54;99412.78;;;11.03
15709;BMP180;7954;51.914;8.420;2022-12-08T13:10:28;99416.88;;;11.02
15709;BMP180;7954;51.914;8.420;2022-12-08T13:13:15;99416.22;;;10.98
15709;BMP180;7954;51.914;8.420;2022-12-08T13:15:48;99416.78;;;10.68
15709;BMP180;7954;51.914;8.420;2022-12-08T13:18:19;99422.31;;;10.66
15709;BMP180;7954;51.914;8.420;2022-12-08T13:20:51;99419.56;;;10.53
15709;BMP180;7954;51.914;8.420;2022-12-08T13:23:28;99417.03;;;10.48
15709;BMP180;7954;51.914;8.420;2022-12-08T13:26:23;99421.88;;;10.46
15709;BMP180;7954;51.914;8.420;2022-12-08T13:29:13;99412.22;;;10.55
15709;BMP180;7954;51.914;8.420;2022-12-08T13:31:43;99410.38;;;10.65
15709;BMP180;7954;51.914;8.420;2022-12-08T13:34:20;99410.59;;;10.55
15709;BMP180;7954;51.914;8.420;2022-12-08T13:36:59;99417.22;;;10.71
15709;BMP180;7954;51.914;8.420;2022-12-08T13:39:34;99411.69;;;10.85
15709;BMP180;7954;51.914;8.420;2022-12-08T13:42:10;99418.56;;;10.86
15709;BMP180;7954;51.914;8.420;2022-12-08T13:44:44;99419.25;;;10.85
15709;BMP180;7954;51.914;8.420;2022-12-08T13:47:35;99414.88;;;10.94
15709;BMP180;7954;51.914;8.420;2022-12-08T13:50:28;99415.94;;;11.07
15709;BMP180;7954;51.914;8.420;2022-12-08T13:53:19;99405.66;;;11.00
15709;BMP180;7954;51.914;8.420;2022-12-08T13:56:09;99409.31;;;11.02
15709;BMP180;7954;51.914;8.420;2022-12-08T13:59:23;99412.00;;;11.20
15709;BMP180;7954;51.914;8.420;2022-12-08T14:01:55;99414.31;;;11.13
15709;BMP180;7954;51.914;8.420;2022-12-08T14:04:25;99415.22;;;11.19
15709;BMP180;7954;51.914;8.420;2022-12-08T14:07:14;99418.84;;;11.27
15709;BMP180;7954;51.914;8.420;2022-12-08T14:09:44;99418.66;;;11.20
15709;BMP180;7954;51.914;8.420;2022-12-08T14:12:17;99419.34;;;11.24
15709;BMP180;7954;51.914;8.420;2022-12-08T14:14:49;99413.81;;;11.21
15709;BMP180;7954;51.914;8.420;2022-12-08T14:17:33;99418.13;;;11.33
15709;BMP180;7954;51.914;8.420;2022-12-08T14:20:05;99411.44;;;11.39
15709;BMP180;7954;51.914;8.420;2022-12-08T14:22:43;99413.28;;;11.40
15709;BMP180;7954;51.914;8.420;2022-12-08T14:25:14;99411.88;;;11.42
15709;BMP180;7954;51.914;8.420;2022-12-08T14:27:42;99415.06;;;11.47
15709;BMP180;7954;51.914;8.420;2022-12-08T14:30:19;99411.66;;;11.41
15709;BMP180;7954;51.914;8.420;2022-12-08T14:32:48;99404.03;;;11.46
15709;BMP180;7954;51.914;8.420;2022-12-08T14:35:19;99409.19;;;11.35
15709;BMP180;7954;51.914;8.420;2022-12-08T14:37:50;99405.06;;;11.30
15709;BMP180;7954;51.914;8.420;2022-12-08T14:40:21;99408.75;;;11.27
15709;BMP180;7954;51.914;8.420;2022-12-08T14:42:51;99418.84;;;11.27
15709;BMP180;7954;51.914;8.420;2022-12-08T14:45:23;99405.28;;;11.26
15709;BMP180;7954;51.914;8.420;2022-12-08T14:47:53;99415.66;;;11.28
15709;BMP180;7954;51.914;8.420;2022-12-08T14:50:37;99419.34;;;11.24
15709;BMP180;7954;51.914;8.420;2022-12-08T14:53:11;99425.78;;;11.17
15709;BMP180;7954;51.914;8.420;2022-12-08T14:55:43;99421.00;;;11.13
15709;BMP180;7954;51.914;8.420;2022-12-08T14:58:16;99422.38;;;11.11
15709;BMP180;7954;51.914;8.420;2022-12-08T15:00:48;99426.31;;;11.03
15709;BMP180;7954;51.914;8.420;2022-12-08T15:03:20;99428.41;;;11.00
15709;BMP180;7954;51.914;8.420;2022-12-08T15:05:50;99434.09;;;11.05
15709;BMP180;7954;51.914;8.420;2022-12-08T15:08:19;99424.22;;;11.12